sensor_id;sensor_type;location;lat;lon;timestamp;pressure;altitude;pressure_sealevel;temperature;humidity
64841;BME280;51307;52.162;7.560;2023-02-24T00:01:38;100948.00;;;4.56;63.25
64841;BME280;51307;52.162;7.560;2023-02-24T00:04:06;100948.66;;;4.47;63.30
64841;BME280;51307;52.162;7.560;2023-02-24T00:06:35;100940.41;;;4.63;62.84
64841;BME280;51307;52.162;7.560;2023-02-24T00:09:13;100938.72;;;4.73;62.68
64841;BME280;51307;52.162;7.560;2023-02-24T00:11:52;100934.63;;;4.69;62.31
64841;BME280;51307;52.162;7.560;2023-02-24T00:14:19;100937.88;;;4.61;62.52
64841;BME280;51307;52.162;7.560;2023-02-24T00:16:45;100937.88;;;4.61;62.67
64841;BME280;51307;52.162;7.560;2023-02-24T00:19:17;100935.31;;;4.60;62.56
64841;BME280;51307;52.162;7.560;2023-02-24T00:21:44;100925.84;;;4.80;62.07
64841;BME280;51307;52.162;7.560;2023-02-24T00:24:10;100926.66;;;4.58;62.66
64841;BME280;51307;52.162;7.560;2023-02-24T00:26:35;100924.13;;;4.20;63.47
64841;BME280;51307;52.162;7.560;2023-02-24T00:29:04;100923.88;;;4.48;62.80
64841;BME280;51307;52.162;7.560;2023-02-24T00:31:30;100922.75;;;4.39;62.99
64841;BME280;51307;52.162;7.560;2023-02-24T00:33:58;100926.13;;;4.05;63.76
64841;BME280;51307;52.162;7.560;2023-02-24T00:36:26;100921.75;;;4.76;62.06
64841;BME280;51307;52.162;7.560;2023-02-24T00:38:58;100925.97;;;4.31;62.83
64841;BME280;51307;52.162;7.560;2023-02-24T00:41:31;100926.16;;;4.52;62.73
64841;BME280;51307;52.162;7.560;2023-02-24T00:44:00;100923.03;;;4.12;63.24
64841;BME280;51307;52.162;7.560;2023-02-24T00:46:33;100920.66;;;4.20;63.14
64841;BME280;51307;52.162;7.560;2023-02-24T00:49:01;100914.28;;;4.34;62.78
64841;BME280;51307;52.162;7.560;2023-02-24T00:51:34;100910.38;;;4.15;63.09
64841;BME280;51307;52.162;7.560;2023-02-24T00:54:01;100906.44;;;4.21;62.50
64841;BME280;51307;52.162;7.560;2023-02-24T00:56:28;100908.09;;;4.11;62.85
64841;BME280;51307;52.162;7.560;2023-02-24T00:58:56;100899.03;;;4.02;62.73
64841;BME280;51307;52.162;7.560;2023-02-24T01:01:25;100900.09;;;4.46;61.47
64841;BME280;51307;52.162;7.560;2023-02-24T01:03:52;100897.94;;;3.93;62.13
64841;BME280;51307;52.162;7.560;2023-02-24T01:06:23;100894.34;;;4.41;61.26
64841;BME280;51307;52.162;7.560;2023-02-24T01:08:51;100895.75;;;4.34;61.39
64841;BME280;51307;52.162;7.560;2023-02-24T01:11:25;100883.94;;;4.27;61.64
64841;BME280;51307;52.162;7.560;2023-02-24T01:14:14;100880.91;;;4.67;60.75
64841;BME280;51307;52.162;7.560;2023-02-24T01:16:42;100882.41;;;3.88;61.70
64841;BME280;51307;52.162;7.560;2023-02-24T01:19:09;100877.94;;;4.36;60.72
64841;BME280;51307;52.162;7.560;2023-02-24T01:21:35;100881.03;;;3.83;61.80
64841;BME280;51307;52.162;7.560;2023-02-24T01:24:01;100878.72;;;4.14;60.84
64841;BME280;51307;52.162;7.560;2023-02-24T01:26:26;100866.84;;;4.31;60.89
64841;BME280;51307;52.162;7.560;2023-02-24T01:28:53;100861.75;;;4.05;60.98
64841;BME280;51307;52.162;7.560;2023-02-24T01:31:20;100857.47;;;3.91;61.05
64841;BME280;51307;52.162;7.560;2023-02-24T01:33:48;100859.00;;;4.18;60.62
64841;BME280;51307;52.162;7.560;2023-02-24T01:36:20;100849.19;;;4.43;59.85
64841;BME280;51307;52.162;7.560;2023-02-24T01:38:47;100847.44;;;4.08;60.81
64841;BME280;51307;52.162;7.560;2023-02-24T01:41:19;100837.59;;;3.85;61.06
64841;BME280;51307;52.162;7.560;2023-02-24T01:46:48;100836.59;;;4.22;60.03
64841;BME280;51307;52.162;7.560;2023-02-24T01:51:48;100830.94;;;3.68;61.20
64841;BME280;51307;52.162;7.560;2023-02-24T01:54:19;100825.19;;;4.33;59.48
64841;BME280;51307;52.162;7.560;2023-02-24T01:56:48;100821.69;;;4.32;59.75
64841;BME280;51307;52.162;7.560;2023-02-24T01:59:18;100821.88;;;4.53;59.23
64841;BME280;51307;52.162;7.560;2023-02-24T02:01:45;100818.28;;;4.54;58.68
64841;BME280;51307;52.162;7.560;2023-02-24T02:06:52;100811.63;;;3.91;59.98
64841;BME280;51307;52.162;7.560;2023-02-24T02:09:19;100803.63;;;4.15;59.80
64841;BME280;51307;52.162;7.560;2023-02-24T02:11:44;100798.56;;;4.23;59.26
64841;BME280;51307;52.162;7.560;2023-02-24T02:14:19;100793.03;;;4.26;59.44
64841;BME280;51307;52.162;7.560;2023-02-24T02:19:42;100791.94;;;4.17;59.31
64841;BME280;51307;52.162;7.560;2023-02-24T02:25:28;100775.06;;;3.96;59.63
64841;BME280;51307;52.162;7.560;2023-02-24T02:28:07;100775.56;;;3.54;60.60
64841;BME280;51307;52.162;7.560;2023-02-24T02:45:17;100752.03;;;3.62;59.50
64841;BME280;51307;52.162;7.560;2023-02-24T02:48:16;100752.03;;;3.62;59.55
64841;BME280;51307;52.162;7.560;2023-02-24T02:50:40;100749.50;;;3.61;59.72
64841;BME280;51307;52.162;7.560;2023-02-24T02:53:17;100744.06;;;3.51;59.64
64841;BME280;51307;52.162;7.560;2023-02-24T02:55:58;100737.91;;;3.50;59.43
64841;BME280;51307;52.162;7.560;2023-02-24T02:58:33;100737.41;;;3.45;59.97
64841;BME280;51307;52.162;7.560;2023-02-24T03:01:03;100737.47;;;3.57;59.61
64841;BME280;51307;52.162;7.560;2023-02-24T03:03:39;100736.59;;;3.56;59.50
64841;BME280;51307;52.162;7.560;2023-02-24T03:06:19;100729.06;;;3.74;59.51
64841;BME280;51307;52.162;7.560;2023-02-24T03:09:10;100733.13;;;3.67;59.15
64841;BME280;51307;52.162;7.560;2023-02-24T03:12:13;100722.34;;;3.34;59.93
64841;BME280;51307;52.162;7.560;2023-02-24T03:14:48;100725.03;;;3.46;59.76
64841;BME280;51307;52.162;7.560;2023-02-24T03:17:21;100707.25;;;3.48;59.89
64841;BME280;51307;52.162;7.560;2023-02-24T03:19:57;100706.66;;;3.44;59.89
64841;BME280;51307;52.162;7.560;2023-02-24T03:22:41;100712.31;;;3.51;59.78
64841;BME280;51307;52.162;7.560;2023-02-24T03:25:09;100712.13;;;3.77;58.82
64841;BME280;51307;52.162;7.560;2023-02-24T03:27:49;100710.09;;;3.33;59.31
64841;BME280;51307;52.162;7.560;2023-02-24T03:33:02;100694.88;;;3.60;59.10
64841;BME280;51307;52.162;7.560;2023-02-24T03:35:33;100694.00;;;3.48;59.06
64841;BME280;51307;52.162;7.560;2023-02-24T03:38:03;100689.31;;;3.40;59.11
64841;BME280;51307;52.162;7.560;2023-02-24T03:40:31;100690.78;;;3.67;58.49
64841;BME280;51307;52.162;7.560;2023-02-24T03:45:36;100677.13;;;3.26;59.31
64841;BME280;51307;52.162;7.560;2023-02-24T03:48:09;100682.47;;;3.60;58.73
64841;BME280;51307;52.162;7.560;2023-02-24T03:50:38;100681.00;;;3.33;58.81
64841;BME280;51307;52.162;7.560;2023-02-24T03:58:54;100666.47;;;3.39;58.97
64841;BME280;51307;52.162;7.560;2023-02-24T04:04:19;100673.16;;;3.20;59.00
64841;BME280;51307;52.162;7.560;2023-02-24T04:07:00;100672.13;;;3.10;59.08
64841;BME280;51307;52.162;7.560;2023-02-24T04:09:38;100675.06;;;3.18;59.10
64841;BME280;51307;52.162;7.560;2023-02-24T04:12:37;100675.09;;;3.30;58.56
64841;BME280;51307;52.162;7.560;2023-02-24T04:17:49;100673.69;;;3.01;59.37
64841;BME280;51307;52.162;7.560;2023-02-24T04:20:20;100662.16;;;3.02;59.07
64841;BME280;51307;52.162;7.560;2023-02-24T04:22:52;100660.03;;;3.19;59.10
64841;BME280;51307;52.162;7.560;2023-02-24T04:25:23;100668.25;;;2.92;59.50
64841;BME280;51307;52.162;7.560;2023-02-24T04:27:53;100663.94;;;3.02;59.36
64841;BME280;51307;52.162;7.560;2023-02-24T04:30:21;100654.94;;;3.04;59.05
64841;BME280;51307;52.162;7.560;2023-02-24T04:32:49;100656.88;;;3.02;59.23
64841;BME280;51307;52.162;7.560;2023-02-24T04:35:19;100652.66;;;3.00;59.39
64841;BME280;51307;52.162;7.560;2023-02-24T04:37:44;100650.19;;;3.21;59.03
64841;BME280;51307;52.162;7.560;2023-02-24T04:40:16;100638.28;;;3.15;59.14
64841;BME280;51307;52.162;7.560;2023-02-24T04:42:43;100638.31;;;3.27;58.77
64841;BME280;51307;52.162;7.560;2023-02-24T04:45:19;100633.78;;;2.93;59.23
64841;BME280;51307;52.162;7.560;2023-02-24T04:47:51;100630.97;;;3.19;58.93
64841;BME280;51307;52.162;7.560;2023-02-24T04:50:24;100630.47;;;3.25;58.62
64841;BME280;51307;52.162;7.560;2023-02-24T04:53:14;100613.56;;;3.50;58.46
64841;BME280;51307;52.162;7.560;2023-02-24T04:55:42;100611.75;;;3.28;58.49
64841;BME280;51307;52.162;7.560;2023-02-24T04:58:10;100611.72;;;3.17;58.71
64841;BME280;51307;52.162;7.560;2023-02-24T05:00:36;100608.72;;;2.75;59.18
64841;BME280;51307;52.162;7.560;2023-02-24T05:03:07;100603.56;;;3.20;58.57
64841;BME280;51307;52.162;7.560;2023-02-24T05:05:35;100588.78;;;3.29;58.43
64841;BME280;51307;52.162;7.560;2023-02-24T05:08:06;100579.66;;;3.33;58.29
64841;BME280;51307;52.162;7.560;2023-02-24T05:10:41;100579.88;;;3.18;58.75
64841;BME280;51307;52.162;7.560;2023-02-24T05:13:15;100570.97;;;3.19;58.56
64841;BME280;51307;52.162;7.560;2023-02-24T05:15:42;100575.66;;;3.04;58.95
64841;BME280;51307;52.162;7.560;2023-02-24T05:18:11;100561.47;;;3.17;58.56
64841;BME280;51307;52.162;7.560;2023-02-24T05:20:47;100561.34;;;3.18;58.58
64841;BME280;51307;52.162;7.560;2023-02-24T05:23:34;100555.03;;;3.32;58.33
64841;BME280;51307;52.162;7.560;2023-02-24T05:26:02;100552.47;;;3.08;58.25
64841;BME280;51307;52.162;7.560;2023-02-24T05:28:28;100548.50;;;3.14;58.32
64841;BME280;51307;52.162;7.560;2023-02-24T05:31:05;100536.13;;;3.14;58.27
64841;BME280;51307;52.162;7.560;2023-02-24T05:33:33;100525.28;;;3.06;58.30
64841;BME280;51307;52.162;7.560;2023-02-24T05:36:08;100540.47;;;3.38;57.72
64841;BME280;51307;52.162;7.560;2023-02-24T05:38:35;100538.41;;;3.30;57.77
64841;BME280;51307;52.162;7.560;2023-02-24T05:41:14;100527.94;;;2.95;58.25
64841;BME280;51307;52.162;7.560;2023-02-24T05:43:43;100524.84;;;3.35;57.79
64841;BME280;51307;52.162;7.560;2023-02-24T05:46:15;100514.50;;;3.43;57.36
64841;BME280;51307;52.162;7.560;2023-02-24T05:48:42;100502.97;;;3.21;57.98
64841;BME280;51307;52.162;7.560;2023-02-24T05:51:15;100495.41;;;3.28;57.27
64841;BME280;51307;52.162;7.560;2023-02-24T05:53:41;100503.56;;;3.36;57.32
64841;BME280;51307;52.162;7.560;2023-02-24T05:56:08;100492.75;;;3.17;57.62
64841;BME280;51307;52.162;7.560;2023-02-24T05:58:34;100478.31;;;3.21;57.73
64841;BME280;51307;52.162;7.560;2023-02-24T06:01:13;100484.47;;;3.44;56.91
64841;BME280;51307;52.162;7.560;2023-02-24T06:03:46;100480.47;;;3.38;57.02
64841;BME280;51307;52.162;7.560;2023-02-24T06:06:15;100472.44;;;3.17;57.29
64841;BME280;51307;52.162;7.560;2023-02-24T06:08:41;100472.19;;;3.20;57.57
64841;BME280;51307;52.162;7.560;2023-02-24T06:11:14;100468.34;;;3.25;57.52
64841;BME280;51307;52.162;7.560;2023-02-24T06:13:41;100457.66;;;2.92;57.72
64841;BME280;51307;52.162;7.560;2023-02-24T06:16:13;100451.53;;;3.03;57.59
64841;BME280;51307;52.162;7.560;2023-02-24T06:18:43;100458.88;;;3.33;56.91
64841;BME280;51307;52.162;7.560;2023-02-24T06:21:11;100458.72;;;3.24;57.23
64841;BME280;51307;52.162;7.560;2023-02-24T06:23:38;100450.09;;;3.21;57.08
64841;BME280;51307;52.162;7.560;2023-02-24T06:26:05;100445.38;;;3.25;56.75
64841;BME280;51307;52.162;7.560;2023-02-24T06:28:38;100441.19;;;3.11;57.04
64841;BME280;51307;52.162;7.560;2023-02-24T06:31:08;100445.38;;;3.36;56.42
64841;BME280;51307;52.162;7.560;2023-02-24T06:33:37;100439.28;;;3.13;56.70
64841;BME280;51307;52.162;7.560;2023-02-24T06:36:03;100437.28;;;3.49;56.32
64841;BME280;51307;52.162;7.560;2023-02-24T06:38:30;100431.59;;;2.99;57.02
64841;BME280;51307;52.162;7.560;2023-02-24T06:40:57;100429.91;;;3.09;56.60
64841;BME280;51307;52.162;7.560;2023-02-24T06:43:22;100427.47;;;3.40;56.36
64841;BME280;51307;52.162;7.560;2023-02-24T06:45:48;100426.03;;;3.25;56.67
64841;BME280;51307;52.162;7.560;2023-02-24T06:48:14;100428.34;;;3.29;56.62
64841;BME280;51307;52.162;7.560;2023-02-24T06:50:40;100421.22;;;3.30;56.68
64841;BME280;51307;52.162;7.560;2023-02-24T06:53:05;100427.47;;;3.29;56.68
64841;BME280;51307;52.162;7.560;2023-02-24T06:55:42;100429.03;;;3.31;56.64
64841;BME280;51307;52.162;7.560;2023-02-24T06:58:16;100425.44;;;3.21;57.06
64841;BME280;51307;52.162;7.560;2023-02-24T07:00:42;100419.31;;;3.20;56.58
64841;BME280;51307;52.162;7.560;2023-02-24T07:03:22;100419.63;;;3.50;56.28
64841;BME280;51307;52.162;7.560;2023-02-24T07:05:53;100422.53;;;3.47;56.38
64841;BME280;51307;52.162;7.560;2023-02-24T07:08:36;100420.84;;;3.46;56.64
64841;BME280;51307;52.162;7.560;2023-02-24T07:11:03;100417.13;;;3.37;56.27
64841;BME280;51307;52.162;7.560;2023-02-24T07:13:31;100405.81;;;3.58;55.66
64841;BME280;51307;52.162;7.560;2023-02-24T07:16:00;100402.81;;;3.40;56.06
64841;BME280;51307;52.162;7.560;2023-02-24T07:18:32;100403.81;;;3.27;56.04
64841;BME280;51307;52.162;7.560;2023-02-24T07:21:01;100390.19;;;3.43;56.09
64841;BME280;51307;52.162;7.560;2023-02-24T07:23:36;100387.38;;;3.56;55.66
64841;BME280;51307;52.162;7.560;2023-02-24T07:26:12;100381.88;;;3.59;55.56
64841;BME280;51307;52.162;7.560;2023-02-24T07:28:39;100380.75;;;3.29;56.18
64841;BME280;51307;52.162;7.560;2023-02-24T07:31:06;100371.34;;;3.25;56.05
64841;BME280;51307;52.162;7.560;2023-02-24T07:33:34;100369.69;;;3.24;56.42
64841;BME280;51307;52.162;7.560;2023-02-24T07:36:05;100363.06;;;3.30;56.36
64841;BME280;51307;52.162;7.560;2023-02-24T07:38:40;100363.22;;;3.06;56.67
64841;BME280;51307;52.162;7.560;2023-02-24T07:41:07;100360.31;;;3.20;56.39
64841;BME280;51307;52.162;7.560;2023-02-24T07:43:36;100365.38;;;3.00;57.13
64841;BME280;51307;52.162;7.560;2023-02-24T07:46:06;100361.50;;;3.27;56.70
64841;BME280;51307;52.162;7.560;2023-02-24T07:48:33;100352.91;;;3.46;56.45
64841;BME280;51307;52.162;7.560;2023-02-24T07:51:04;100360.09;;;3.12;57.07
64841;BME280;51307;52.162;7.560;2023-02-24T07:53:30;100348.97;;;3.41;56.30
64841;BME280;51307;52.162;7.560;2023-02-24T07:55:55;100348.88;;;3.31;56.54
64841;BME280;51307;52.162;7.560;2023-02-24T07:58:21;100346.72;;;3.25;57.00
64841;BME280;51307;52.162;7.560;2023-02-24T08:00:48;100340.22;;;3.40;56.53
64841;BME280;51307;52.162;7.560;2023-02-24T08:03:27;100338.44;;;3.18;56.97
64841;BME280;51307;52.162;7.560;2023-02-24T08:05:56;100330.69;;;3.05;57.50
64841;BME280;51307;52.162;7.560;2023-02-24T08:08:24;100325.69;;;3.23;57.58
64841;BME280;51307;52.162;7.560;2023-02-24T08:10:50;100326.41;;;3.25;57.51
64841;BME280;51307;52.162;7.560;2023-02-24T08:13:25;100315.25;;;3.21;57.62
64841;BME280;51307;52.162;7.560;2023-02-24T08:15:53;100314.63;;;3.29;57.73
64841;BME280;51307;52.162;7.560;2023-02-24T08:18:22;100312.97;;;3.17;58.56
64841;BME280;51307;52.162;7.560;2023-02-24T08:20:47;100313.47;;;3.11;58.97
64841;BME280;51307;52.162;7.560;2023-02-24T08:23:17;100311.44;;;3.03;59.21
64841;BME280;51307;52.162;7.560;2023-02-24T08:25:43;100303.06;;;3.30;59.16
64841;BME280;51307;52.162;7.560;2023-02-24T08:28:09;100306.06;;;2.93;59.76
64841;BME280;51307;52.162;7.560;2023-02-24T08:30:41;100301.22;;;3.10;59.15
64841;BME280;51307;52.162;7.560;2023-02-24T08:33:12;100301.13;;;2.88;60.06
64841;BME280;51307;52.162;7.560;2023-02-24T08:35:41;100287.25;;;3.08;60.32
64841;BME280;51307;52.162;7.560;2023-02-24T08:38:18;100286.53;;;3.17;60.32
64841;BME280;51307;52.162;7.560;2023-02-24T08:40:48;100271.53;;;3.06;60.17
64841;BME280;51307;52.162;7.560;2023-02-24T08:43:27;100276.13;;;2.93;60.49
64841;BME280;51307;52.162;7.560;2023-02-24T08:46:17;100270.91;;;3.14;60.65
64841;BME280;51307;52.162;7.560;2023-02-24T08:51:32;100259.84;;;2.87;61.42
64841;BME280;51307;52.162;7.560;2023-02-24T08:54:11;100258.66;;;3.13;60.64
64841;BME280;51307;52.162;7.560;2023-02-24T08:56:42;100250.31;;;2.96;61.34
64841;BME280;51307;52.162;7.560;2023-02-24T08:59:13;100254.44;;;3.21;61.21
64841;BME280;51307;52.162;7.560;2023-02-24T09:01:58;100242.50;;;2.95;61.56
64841;BME280;51307;52.162;7.560;2023-02-24T09:05:00;100243.03;;;2.77;62.71
64841;BME280;51307;52.162;7.560;2023-02-24T09:09:55;100241.00;;;2.81;62.33
64841;BME280;51307;52.162;7.560;2023-02-24T09:12:23;100231.09;;;3.27;62.19
64841;BME280;51307;52.162;7.560;2023-02-24T09:15:00;100225.91;;;2.93;62.58
64841;BME280;51307;52.162;7.560;2023-02-24T09:17:30;100217.25;;;3.02;62.74
64841;BME280;51307;52.162;7.560;2023-02-24T09:20:20;100240.34;;;3.00;63.20
64841;BME280;51307;52.162;7.560;2023-02-24T09:22:56;100221.31;;;3.06;63.08
64841;BME280;51307;52.162;7.560;2023-02-24T09:25:29;100215.19;;;3.06;63.34
64841;BME280;51307;52.162;7.560;2023-02-24T09:28:26;100205.88;;;2.90;63.97
64841;BME280;51307;52.162;7.560;2023-02-24T09:30:59;100205.44;;;2.85;64.02
64841;BME280;51307;52.162;7.560;2023-02-24T09:33:32;100200.88;;;2.76;64.36
64841;BME280;51307;52.162;7.560;2023-02-24T09:41:26;100185.16;;;3.07;64.01
64841;BME280;51307;52.162;7.560;2023-02-24T09:44:12;100180.25;;;3.02;64.41
64841;BME280;51307;52.162;7.560;2023-02-24T09:46:56;100170.88;;;2.98;64.63
64841;BME280;51307;52.162;7.560;2023-02-24T09:49:46;100166.03;;;2.82;65.26
64841;BME280;51307;52.162;7.560;2023-02-24T09:52:14;100173.88;;;2.72;65.33
64841;BME280;51307;52.162;7.560;2023-02-24T09:54:44;100165.19;;;3.14;64.71
64841;BME280;51307;52.162;7.560;2023-02-24T09:57:47;100156.22;;;3.05;64.65
64841;BME280;51307;52.162;7.560;2023-02-24T10:00:37;100156.13;;;2.95;65.63
64841;BME280;51307;52.162;7.560;2023-02-24T10:03:23;100153.81;;;2.81;66.08
64841;BME280;51307;52.162;7.560;2023-02-24T10:06:20;100166.28;;;2.79;65.57
64841;BME280;51307;52.162;7.560;2023-02-24T10:09:02;100149.50;;;2.68;66.44
64841;BME280;51307;52.162;7.560;2023-02-24T10:11:47;100148.63;;;2.79;66.38
64841;BME280;51307;52.162;7.560;2023-02-24T10:14:35;100128.75;;;2.52;66.96
64841;BME280;51307;52.162;7.560;2023-02-24T10:17:21;100128.81;;;2.85;66.58
64841;BME280;51307;52.162;7.560;2023-02-24T10:19:47;100125.16;;;2.86;66.61
64841;BME280;51307;52.162;7.560;2023-02-24T10:22:43;100114.25;;;2.47;67.30
64841;BME280;51307;52.162;7.560;2023-02-24T10:30:54;100093.66;;;2.73;67.49
64841;BME280;51307;52.162;7.560;2023-02-24T10:36:09;100094.53;;;2.62;67.32
64841;BME280;51307;52.162;7.560;2023-02-24T10:38:37;100082.34;;;2.82;67.12
64841;BME280;51307;52.162;7.560;2023-02-24T10:41:08;100091.47;;;2.99;66.83
64841;BME280;51307;52.162;7.560;2023-02-24T10:43:34;100085.09;;;2.81;67.37
64841;BME280;51307;52.162;7.560;2023-02-24T10:46:21;100074.69;;;2.68;67.50
64841;BME280;51307;52.162;7.560;2023-02-24T10:48:57;100070.78;;;3.04;66.79
64841;BME280;51307;52.162;7.560;2023-02-24T10:51:35;100079.66;;;2.61;67.82
64841;BME280;51307;52.162;7.560;2023-02-24T10:57:02;100064.94;;;2.80;67.95
64841;BME280;51307;52.162;7.560;2023-02-24T10:59:53;100055.84;;;2.94;67.13
64841;BME280;51307;52.162;7.560;2023-02-24T11:02:38;100062.50;;;2.77;67.83
64841;BME280;51307;52.162;7.560;2023-02-24T11:05:50;100035.97;;;2.99;67.00
64841;BME280;51307;52.162;7.560;2023-02-24T11:08:28;100039.53;;;2.88;67.38
64841;BME280;51307;52.162;7.560;2023-02-24T11:11:25;100030.03;;;2.86;67.02
64841;BME280;51307;52.162;7.560;2023-02-24T11:14:00;100026.69;;;2.63;67.56
64841;BME280;51307;52.162;7.560;2023-02-24T11:16:52;100017.53;;;2.67;68.02
64841;BME280;51307;52.162;7.560;2023-02-24T11:22:31;100003.56;;;2.97;67.56
64841;BME280;51307;52.162;7.560;2023-02-24T11:25:14;100009.19;;;2.83;68.23
64841;BME280;51307;52.162;7.560;2023-02-24T11:27:46;100002.97;;;3.15;67.32
64841;BME280;51307;52.162;7.560;2023-02-24T11:30:31;99998.50;;;2.63;68.65
64841;BME280;51307;52.162;7.560;2023-02-24T11:33:10;100000.34;;;2.94;67.18
64841;BME280;51307;52.162;7.560;2023-02-24T11:43:48;99975.72;;;2.93;67.39
64841;BME280;51307;52.162;7.560;2023-02-24T11:46:24;99969.66;;;3.02;67.88
64841;BME280;51307;52.162;7.560;2023-02-24T11:48:55;99968.25;;;2.77;68.29
64841;BME280;51307;52.162;7.560;2023-02-24T11:51:30;99963.16;;;3.07;67.76
64841;BME280;51307;52.162;7.560;2023-02-24T11:54:11;99952.56;;;3.07;68.08
64841;BME280;51307;52.162;7.560;2023-02-24T12:01:55;99946.50;;;2.85;68.39
64841;BME280;51307;52.162;7.560;2023-02-24T12:07:33;99954.22;;;3.08;68.59
64841;BME280;51307;52.162;7.560;2023-02-24T12:10:14;99942.31;;;3.13;68.48
64841;BME280;51307;52.162;7.560;2023-02-24T12:13:11;99936.94;;;3.03;69.07
64841;BME280;51307;52.162;7.560;2023-02-24T12:15:48;99939.38;;;2.85;69.57
64841;BME280;51307;52.162;7.560;2023-02-24T12:18:54;99928.66;;;3.08;69.21
64841;BME280;51307;52.162;7.560;2023-02-24T12:21:21;99917.81;;;3.21;68.86
64841;BME280;51307;52.162;7.560;2023-02-24T12:23:51;99910.59;;;3.23;68.75
64841;BME280;51307;52.162;7.560;2023-02-24T12:29:08;99916.53;;;3.06;69.77
64841;BME280;51307;52.162;7.560;2023-02-24T12:37:34;99908.72;;;3.45;69.36
64841;BME280;51307;52.162;7.560;2023-02-24T12:51:07;99893.44;;;3.58;69.64
64841;BME280;51307;52.162;7.560;2023-02-24T12:53:44;99883.22;;;3.34;70.36
64841;BME280;51307;52.162;7.560;2023-02-24T12:56:20;99868.66;;;3.69;69.62
64841;BME280;51307;52.162;7.560;2023-02-24T12:58:55;99870.22;;;3.21;70.59
64841;BME280;51307;52.162;7.560;2023-02-24T13:01:36;99854.56;;;3.49;70.41
64841;BME280;51307;52.162;7.560;2023-02-24T13:12:36;99827.44;;;3.86;70.00
64841;BME280;51307;52.162;7.560;2023-02-24T13:15:11;99831.88;;;3.95;70.02
64841;BME280;51307;52.162;7.560;2023-02-24T13:17:48;99828.13;;;3.88;70.38
64841;BME280;51307;52.162;7.560;2023-02-24T13:22:56;99811.50;;;4.05;69.50
64841;BME280;51307;52.162;7.560;2023-02-24T13:25:35;99811.06;;;4.20;69.78
64841;BME280;51307;52.162;7.560;2023-02-24T13:28:04;99803.44;;;4.17;69.95
64841;BME280;51307;52.162;7.560;2023-02-24T13:30:43;99800.34;;;4.21;69.85
64841;BME280;51307;52.162;7.560;2023-02-24T13:35:45;99799.78;;;4.18;69.54
64841;BME280;51307;52.162;7.560;2023-02-24T13:43:31;99784.94;;;4.45;68.93
64841;BME280;51307;52.162;7.560;2023-02-24T13:46:01;99773.72;;;4.23;69.29
64841;BME280;51307;52.162;7.560;2023-02-24T13:48:41;99774.66;;;4.32;69.21
64841;BME280;51307;52.162;7.560;2023-02-24T13:51:27;99777.56;;;4.38;69.30
64841;BME280;51307;52.162;7.560;2023-02-24T14:04:46;99746.59;;;4.77;68.70
64841;BME280;51307;52.162;7.560;2023-02-24T14:07:20;99744.91;;;4.85;68.60
64841;BME280;51307;52.162;7.560;2023-02-24T14:10:36;99748.38;;;4.86;68.75
64841;BME280;51307;52.162;7.560;2023-02-24T14:12:40;99740.81;;;4.91;68.77
64841;BME280;51307;52.162;7.560;2023-02-24T14:15:12;99735.13;;;5.04;68.46
64841;BME280;51307;52.162;7.560;2023-02-24T14:17:39;99736.88;;;5.13;68.22
64841;BME280;51307;52.162;7.560;2023-02-24T14:22:34;99739.94;;;4.72;69.28
64841;BME280;51307;52.162;7.560;2023-02-24T14:25:08;99731.06;;;5.10;68.46
64841;BME280;51307;52.162;7.560;2023-02-24T14:27:36;99724.44;;;4.96;69.20
64841;BME280;51307;52.162;7.560;2023-02-24T14:30:04;99725.13;;;5.16;68.70
64841;BME280;51307;52.162;7.560;2023-02-24T14:32:31;99729.03;;;4.76;69.92
64841;BME280;51307;52.162;7.560;2023-02-24T14:34:58;99735.34;;;5.11;69.05
64841;BME280;51307;52.162;7.560;2023-02-24T14:37:29;99737.78;;;4.58;70.53
64841;BME280;51307;52.162;7.560;2023-02-24T14:39:58;99737.34;;;5.09;69.18
64841;BME280;51307;52.162;7.560;2023-02-24T14:42:24;99734.69;;;4.63;70.12
64841;BME280;51307;52.162;7.560;2023-02-24T14:44:57;99735.13;;;5.04;69.48
64841;BME280;51307;52.162;7.560;2023-02-24T14:47:26;99733.84;;;4.90;69.80
64841;BME280;51307;52.162;7.560;2023-02-24T14:49:54;99734.56;;;4.82;70.50
64841;BME280;51307;52.162;7.560;2023-02-24T14:52:48;99727.31;;;4.84;70.82
64841;BME280;51307;52.162;7.560;2023-02-24T14:58:07;99727.13;;;5.14;69.68
64841;BME280;51307;52.162;7.560;2023-02-24T15:00:40;99731.88;;;5.10;69.15
64841;BME280;51307;52.162;7.560;2023-02-24T15:03:26;99730.81;;;5.39;69.10
64841;BME280;51307;52.162;7.560;2023-02-24T15:05:58;99721.97;;;5.30;69.13
64841;BME280;51307;52.162;7.560;2023-02-24T15:08:58;99709.06;;;5.35;69.38
64841;BME280;51307;52.162;7.560;2023-02-24T15:11:28;99704.44;;;5.37;69.16
64841;BME280;51307;52.162;7.560;2023-02-24T15:13:59;99702.03;;;5.26;69.40
64841;BME280;51307;52.162;7.560;2023-02-24T15:16:48;99688.69;;;5.36;68.93
64841;BME280;51307;52.162;7.560;2023-02-24T15:21:48;99685.25;;;6.82;64.45
64841;BME280;51307;52.162;7.560;2023-02-24T15:26:55;99674.97;;;7.69;60.59
64841;BME280;51307;52.162;7.560;2023-02-24T15:29:24;99683.28;;;7.74;59.84
64841;BME280;51307;52.162;7.560;2023-02-24T15:31:53;99676.25;;;8.78;58.43
64841;BME280;51307;52.162;7.560;2023-02-24T15:34:32;99671.34;;;7.54;59.85
64841;BME280;51307;52.162;7.560;2023-02-24T15:37:23;99669.69;;;7.45;60.76
64841;BME280;51307;52.162;7.560;2023-02-24T15:39:57;99661.84;;;6.94;61.66
64841;BME280;51307;52.162;7.560;2023-02-24T15:42:30;99660.53;;;7.06;61.62
64841;BME280;51307;52.162;7.560;2023-02-24T15:45:05;99653.31;;;6.65;62.59
64841;BME280;51307;52.162;7.560;2023-02-24T15:47:52;99651.38;;;6.84;62.24
64841;BME280;51307;52.162;7.560;2023-02-24T15:50:21;99645.41;;;6.31;63.62
64841;BME280;51307;52.162;7.560;2023-02-24T15:52:48;99652.09;;;6.00;64.63
64841;BME280;51307;52.162;7.560;2023-02-24T15:55:19;99650.72;;;6.31;64.12
64841;BME280;51307;52.162;7.560;2023-02-24T15:57:47;99634.66;;;5.98;65.14
64841;BME280;51307;52.162;7.560;2023-02-24T16:00:20;99646.09;;;5.98;65.17
64841;BME280;51307;52.162;7.560;2023-02-24T16:02:47;99644.78;;;6.02;65.18